sensor_id;sensor_type;location;lat;lon;timestamp;pressure;altitude;pressure_sealevel;temperature;humidity
20656;BME280;10487;53.320;8.672;2023-02-13T00:01:58;103589.56;;;5.58;63.63
20656;BME280;10487;53.320;8.672;2023-02-13T00:05:00;103586.94;;;5.57;63.65
20656;BME280;10487;53.320;8.672;2023-02-13T00:08:02;103586.94;;;5.55;63.61
20656;BME280;10487;53.320;8.672;2023-02-13T00:11:04;103584.31;;;5.52;63.89
20656;BME280;10487;53.320;8.672;2023-02-13T00:14:05;103586.97;;;5.51;63.73
20656;BME280;10487;53.320;8.672;2023-02-13T00:17:07;103581.69;;;5.48;63.76
20656;BME280;10487;53.320;8.672;2023-02-13T00:20:09;103579.97;;;5.47;63.73
20656;BME280;10487;53.320;8.672;2023-02-13T00:23:11;103579.06;;;5.45;63.83
20656;BME280;10487;53.320;8.672;2023-02-13T00:26:14;103582.63;;;5.44;63.74
20656;BME280;10487;53.320;8.672;2023-02-13T00:29:17;103580.88;;;5.41;63.89
20656;BME280;10487;53.320;8.672;2023-02-13T00:32:18;103579.13;;;5.38;63.90
20656;BME280;10487;53.320;8.672;2023-02-13T00:35:20;103577.38;;;5.37;63.77
20656;BME280;10487;53.320;8.672;2023-02-13T00:38:21;103571.19;;;5.37;63.92
20656;BME280;10487;53.320;8.672;2023-02-13T00:41:23;103573.84;;;5.35;63.83
20656;BME280;10487;53.320;8.672;2023-02-13T00:44:25;103572.09;;;5.34;63.94
20656;BME280;10487;53.320;8.672;2023-02-13T00:47:26;103569.47;;;5.31;63.85
20656;BME280;10487;53.320;8.672;2023-02-13T00:50:28;103570.38;;;5.30;63.97
20656;BME280;10487;53.320;8.672;2023-02-13T00:53:30;103574.78;;;5.28;64.03
20656;BME280;10487;53.320;8.672;2023-02-13T00:56:32;103578.34;;;5.26;64.03
20656;BME280;10487;53.320;8.672;2023-02-13T00:59:33;103575.69;;;5.26;64.05
20656;BME280;10487;53.320;8.672;2023-02-13T01:02:35;103575.72;;;5.24;63.91
20656;BME280;10487;53.320;8.672;2023-02-13T01:05:37;103581.00;;;5.23;64.11
20656;BME280;10487;53.320;8.672;2023-02-13T01:08:39;103581.91;;;5.20;64.02
20656;BME280;10487;53.320;8.672;2023-02-13T01:11:41;103572.22;;;5.18;64.04
20656;BME280;10487;53.320;8.672;2023-02-13T01:14:42;103577.53;;;5.15;64.15
20656;BME280;10487;53.320;8.672;2023-02-13T01:17:44;103578.41;;;5.11;64.05
20656;BME280;10487;53.320;8.672;2023-02-13T01:20:55;103580.19;;;5.09;64.15
20656;BME280;10487;53.320;8.672;2023-02-13T01:24:02;103581.97;;;5.07;64.13
20656;BME280;10487;53.320;8.672;2023-02-13T01:27:04;103581.06;;;5.05;64.13
20656;BME280;10487;53.320;8.672;2023-02-13T01:30:06;103578.47;;;5.03;64.19
20656;BME280;10487;53.320;8.672;2023-02-13T01:33:12;103579.34;;;5.01;64.22
20656;BME280;10487;53.320;8.672;2023-02-13T01:36:14;103572.31;;;5.00;64.28
20656;BME280;10487;53.320;8.672;2023-02-13T01:39:15;103568.78;;;4.98;64.10
20656;BME280;10487;53.320;8.672;2023-02-13T01:42:24;103569.66;;;4.95;64.10
20656;BME280;10487;53.320;8.672;2023-02-13T01:45:28;103567.94;;;4.91;64.18
20656;BME280;10487;53.320;8.672;2023-02-13T01:48:30;103565.31;;;4.91;64.20
20656;BME280;10487;53.320;8.672;2023-02-13T01:51:34;103555.59;;;4.90;64.26
20656;BME280;10487;53.320;8.672;2023-02-13T01:54:37;103556.50;;;4.88;64.10
20656;BME280;10487;53.320;8.672;2023-02-13T01:57:39;103554.75;;;4.87;64.18
20656;BME280;10487;53.320;8.672;2023-02-13T02:00:44;103554.75;;;4.85;64.30
20656;BME280;10487;53.320;8.672;2023-02-13T02:03:59;103546.84;;;4.82;64.33
20656;BME280;10487;53.320;8.672;2023-02-13T02:07:12;103529.19;;;4.81;64.36
20656;BME280;10487;53.320;8.672;2023-02-13T02:10:17;103528.31;;;4.81;64.25
20656;BME280;10487;53.320;8.672;2023-02-13T02:13:20;103527.44;;;4.78;64.15
20656;BME280;10487;53.320;8.672;2023-02-13T02:16:22;103524.81;;;4.75;64.33
20656;BME280;10487;53.320;8.672;2023-02-13T02:19:40;103518.66;;;4.73;64.39
20656;BME280;10487;53.320;8.672;2023-02-13T02:27:04;103508.94;;;4.72;64.40
20656;BME280;10487;53.320;8.672;2023-02-13T02:40:11;103511.63;;;4.68;64.36
20656;BME280;10487;53.320;8.672;2023-02-13T02:50:15;103519.59;;;4.66;64.42
20656;BME280;10487;53.320;8.672;2023-02-13T02:57:02;103511.66;;;4.65;64.31
20656;BME280;10487;53.320;8.672;2023-02-13T03:00:07;103514.31;;;4.65;64.45
20656;BME280;10487;53.320;8.672;2023-02-13T03:03:38;103512.53;;;4.64;64.45
20656;BME280;10487;53.320;8.672;2023-02-13T03:07:01;103506.38;;;4.65;64.36
20656;BME280;10487;53.320;8.672;2023-02-13T03:10:11;103501.09;;;4.65;64.43
20656;BME280;10487;53.320;8.672;2023-02-13T03:13:38;103502.84;;;4.64;64.36
20656;BME280;10487;53.320;8.672;2023-02-13T03:16:41;103507.22;;;4.65;64.40
20656;BME280;10487;53.320;8.672;2023-02-13T03:26:49;103509.00;;;4.63;64.38
20656;BME280;10487;53.320;8.672;2023-02-13T03:30:06;103507.25;;;4.64;64.35
20656;BME280;10487;53.320;8.672;2023-02-13T03:33:47;103506.38;;;4.65;64.52
20656;BME280;10487;53.320;8.672;2023-02-13T03:37:02;103506.38;;;4.63;64.33
20656;BME280;10487;53.320;8.672;2023-02-13T03:40:47;103503.72;;;4.63;64.42
20656;BME280;10487;53.320;8.672;2023-02-13T03:44:22;103504.63;;;4.61;64.38
20656;BME280;10487;53.320;8.672;2023-02-13T03:47:27;103508.16;;;4.61;64.44
20656;BME280;10487;53.320;8.672;2023-02-13T03:50:28;103519.59;;;4.60;64.43
20656;BME280;10487;53.320;8.672;2023-02-13T03:53:32;103510.78;;;4.61;64.47
20656;BME280;10487;53.320;8.672;2023-02-13T03:56:39;103516.97;;;4.62;64.50
20656;BME280;10487;53.320;8.672;2023-02-13T04:00:01;103515.19;;;4.61;64.48
20656;BME280;10487;53.320;8.672;2023-02-13T04:03:17;103516.09;;;4.61;64.47
20656;BME280;10487;53.320;8.672;2023-02-13T04:06:33;103514.31;;;4.62;64.44
20656;BME280;10487;53.320;8.672;2023-02-13T04:09:41;103521.38;;;4.61;64.45
20656;BME280;10487;53.320;8.672;2023-02-13T04:12:59;103513.44;;;4.61;64.52
20656;BME280;10487;53.320;8.672;2023-02-13T04:16:15;103517.84;;;4.61;64.40
20656;BME280;10487;53.320;8.672;2023-02-13T04:19:19;103521.28;;;4.75;65.29
20656;BME280;10487;53.320;8.672;2023-02-13T04:22:21;103515.91;;;4.95;64.79
20656;BME280;10487;53.320;8.672;2023-02-13T04:25:22;103520.28;;;4.97;64.58
20656;BME280;10487;53.320;8.672;2023-02-13T04:28:24;103528.22;;;4.96;64.49
20656;BME280;10487;53.320;8.672;2023-02-13T04:31:26;103528.22;;;4.93;64.54
20656;BME280;10487;53.320;8.672;2023-02-13T04:34:28;103522.97;;;4.90;64.53
20656;BME280;10487;53.320;8.672;2023-02-13T04:37:29;103519.47;;;4.86;64.45
20656;BME280;10487;53.320;8.672;2023-02-13T04:40:31;103518.59;;;4.83;64.06
20656;BME280;10487;53.320;8.672;2023-02-13T04:43:32;103520.41;;;4.79;64.63
20656;BME280;10487;53.320;8.672;2023-02-13T04:46:34;103517.75;;;4.76;64.62
20656;BME280;10487;53.320;8.672;2023-02-13T04:49:36;103517.78;;;4.73;64.52
20656;BME280;10487;53.320;8.672;2023-02-13T04:52:37;103515.13;;;4.70;64.50
20656;BME280;10487;53.320;8.672;2023-02-13T04:55:39;103518.69;;;4.69;64.65
20656;BME280;10487;53.320;8.672;2023-02-13T04:58:40;103520.47;;;4.67;64.55
20656;BME280;10487;53.320;8.672;2023-02-13T05:01:42;103516.06;;;4.64;64.61
20656;BME280;10487;53.320;8.672;2023-02-13T05:04:44;103517.84;;;4.62;64.55
20656;BME280;10487;53.320;8.672;2023-02-13T05:07:45;103516.97;;;4.62;64.75
20656;BME280;10487;53.320;8.672;2023-02-13T05:10:47;103514.31;;;4.60;64.65
20656;BME280;10487;53.320;8.672;2023-02-13T05:13:49;103509.03;;;4.59;64.56
20656;BME280;10487;53.320;8.672;2023-02-13T05:16:50;103512.59;;;4.56;64.59
20656;BME280;10487;53.320;8.672;2023-02-13T05:19:52;103506.44;;;4.54;64.56
20656;BME280;10487;53.320;8.672;2023-02-13T05:22:53;103514.38;;;4.54;64.51
20656;BME280;10487;53.320;8.672;2023-02-13T05:26:14;103518.78;;;4.51;64.53
20656;BME280;10487;53.320;8.672;2023-02-13T05:29:15;103517.88;;;4.50;64.54
20656;BME280;10487;53.320;8.672;2023-02-13T05:32:20;103505.56;;;4.48;64.63
20656;BME280;10487;53.320;8.672;2023-02-13T05:35:22;103513.50;;;4.46;64.66
20656;BME280;10487;53.320;8.672;2023-02-13T05:38:25;103510.88;;;4.45;64.58
20656;BME280;10487;53.320;8.672;2023-02-13T05:41:26;103519.66;;;4.45;64.70
20656;BME280;10487;53.320;8.672;2023-02-13T05:44:28;103517.94;;;4.47;64.61
20656;BME280;10487;53.320;8.672;2023-02-13T05:47:29;103515.28;;;4.47;64.59
20656;BME280;10487;53.320;8.672;2023-02-13T05:50:31;103507.34;;;4.46;64.66
20656;BME280;10487;53.320;8.672;2023-02-13T05:53:33;103514.38;;;4.45;64.64
20656;BME280;10487;53.320;8.672;2023-02-13T05:56:37;103522.34;;;4.44;64.54
20656;BME280;10487;53.320;8.672;2023-02-13T05:59:39;103525.84;;;4.43;64.69
20656;BME280;10487;53.320;8.672;2023-02-13T06:02:40;103525.88;;;4.41;64.58
20656;BME280;10487;53.320;8.672;2023-02-13T06:05:42;103531.19;;;4.40;64.62
20656;BME280;10487;53.320;8.672;2023-02-13T06:08:43;103534.72;;;4.37;64.75
20656;BME280;10487;53.320;8.672;2023-02-13T06:11:45;103535.59;;;4.35;64.59
20656;BME280;10487;53.320;8.672;2023-02-13T06:14:46;103543.53;;;4.35;64.76
20656;BME280;10487;53.320;8.672;2023-02-13T06:17:48;103534.72;;;4.34;64.71
20656;BME280;10487;53.320;8.672;2023-02-13T06:20:50;103550.59;;;4.34;64.54
20656;BME280;10487;53.320;8.672;2023-02-13T06:23:51;103543.53;;;4.32;64.62
20656;BME280;10487;53.320;8.672;2023-02-13T06:26:53;103539.16;;;4.32;64.63
20656;BME280;10487;53.320;8.672;2023-02-13T06:29:54;103540.91;;;4.32;64.83
20656;BME280;10487;53.320;8.672;2023-02-13T06:32:56;103542.69;;;4.33;64.59
20656;BME280;10487;53.320;8.672;2023-02-13T06:35:58;103544.41;;;4.34;64.65
20656;BME280;10487;53.320;8.672;2023-02-13T06:38:59;103543.53;;;4.32;64.67
20656;BME280;10487;53.320;8.672;2023-02-13T06:42:01;103552.34;;;4.34;64.64
20656;BME280;10487;53.320;8.672;2023-02-13T06:45:02;103551.47;;;4.33;64.75
20656;BME280;10487;53.320;8.672;2023-02-13T06:48:04;103557.63;;;4.34;64.65
20656;BME280;10487;53.320;8.672;2023-02-13T06:51:06;103555.91;;;4.33;64.69
20656;BME280;10487;53.320;8.672;2023-02-13T06:54:08;103559.41;;;4.32;64.54
20656;BME280;10487;53.320;8.672;2023-02-13T06:57:09;103563.81;;;4.31;64.63
20656;BME280;10487;53.320;8.672;2023-02-13T07:00:13;103558.53;;;4.31;64.63
20656;BME280;10487;53.320;8.672;2023-02-13T07:03:15;103567.34;;;4.30;64.67
20656;BME280;10487;53.320;8.672;2023-02-13T07:06:18;103578.81;;;4.32;64.69
20656;BME280;10487;53.320;8.672;2023-02-13T07:09:20;103579.69;;;4.30;64.66
20656;BME280;10487;53.320;8.672;2023-02-13T07:12:21;103576.16;;;4.32;64.66
20656;BME280;10487;53.320;8.672;2023-02-13T07:15:23;103575.28;;;4.32;64.60
20656;BME280;10487;53.320;8.672;2023-02-13T07:18:24;103584.97;;;4.33;64.69
20656;BME280;10487;53.320;8.672;2023-02-13T07:21:27;103577.91;;;4.33;64.74
20656;BME280;10487;53.320;8.672;2023-02-13T07:24:28;103586.72;;;4.34;64.63
20656;BME280;10487;53.320;8.672;2023-02-13T07:27:30;103578.78;;;4.34;64.64
20656;BME280;10487;53.320;8.672;2023-02-13T07:30:32;103583.19;;;4.35;64.73
20656;BME280;10487;53.320;8.672;2023-02-13T07:33:34;103590.25;;;4.34;64.61
20656;BME280;10487;53.320;8.672;2023-02-13T07:36:36;103596.41;;;4.35;64.68
20656;BME280;10487;53.320;8.672;2023-02-13T07:39:38;103597.31;;;4.35;64.68
20656;BME280;10487;53.320;8.672;2023-02-13T07:42:40;103599.03;;;4.36;64.71
20656;BME280;10487;53.320;8.672;2023-02-13T07:45:41;103601.66;;;4.38;64.67
20656;BME280;10487;53.320;8.672;2023-02-13T07:48:43;103590.22;;;4.39;64.60
20656;BME280;10487;53.320;8.672;2023-02-13T07:51:44;103592.88;;;4.39;64.68
20656;BME280;10487;53.320;8.672;2023-02-13T07:54:46;103599.94;;;4.40;64.74
20656;BME280;10487;53.320;8.672;2023-02-13T07:57:49;103585.81;;;4.41;64.67
20656;BME280;10487;53.320;8.672;2023-02-13T08:00:50;103591.97;;;4.41;64.68
20656;BME280;10487;53.320;8.672;2023-02-13T08:03:54;103602.53;;;4.43;64.65
20656;BME280;10487;53.320;8.672;2023-02-13T08:06:56;103597.25;;;4.44;64.69
20656;BME280;10487;53.320;8.672;2023-02-13T08:09:58;103591.09;;;4.44;64.67
20656;BME280;10487;53.320;8.672;2023-02-13T08:13:18;103591.09;;;4.44;64.65
20656;BME280;10487;53.320;8.672;2023-02-13T08:16:19;103595.50;;;4.45;64.63
20656;BME280;10487;53.320;8.672;2023-02-13T08:19:21;103593.72;;;4.45;64.79
20656;BME280;10487;53.320;8.672;2023-02-13T08:22:23;103594.63;;;4.47;64.77
20656;BME280;10487;53.320;8.672;2023-02-13T08:25:24;103594.59;;;4.49;64.75
20656;BME280;10487;53.320;8.672;2023-02-13T08:28:27;103596.38;;;4.50;64.80
20656;BME280;10487;53.320;8.672;2023-02-13T08:31:29;103606.94;;;4.51;64.59
20656;BME280;10487;53.320;8.672;2023-02-13T08:34:31;103599.88;;;4.52;64.79
20656;BME280;10487;53.320;8.672;2023-02-13T08:37:33;103597.22;;;4.50;64.74
20656;BME280;10487;53.320;8.672;2023-02-13T08:40:34;103602.53;;;4.52;64.73
20656;BME280;10487;53.320;8.672;2023-02-13T08:43:36;103601.63;;;4.53;64.77
20656;BME280;10487;53.320;8.672;2023-02-13T08:46:37;103610.47;;;4.55;64.84
20656;BME280;10487;53.320;8.672;2023-02-13T08:49:39;103601.63;;;4.56;64.83
20656;BME280;10487;53.320;8.672;2023-02-13T08:52:40;103599.84;;;4.56;64.82
20656;BME280;10487;53.320;8.672;2023-02-13T08:55:42;103599.88;;;4.55;64.69
20656;BME280;10487;53.320;8.672;2023-02-13T08:58:47;103604.28;;;4.54;64.87
20656;BME280;10487;53.320;8.672;2023-02-13T09:01:49;103600.75;;;4.54;64.81
20656;BME280;10487;53.320;8.672;2023-02-13T09:04:50;103603.41;;;4.54;64.91
20656;BME280;10487;53.320;8.672;2023-02-13T09:07:52;103606.03;;;4.55;64.72
20656;BME280;10487;53.320;8.672;2023-02-13T09:10:58;103609.56;;;4.54;64.76
20656;BME280;10487;53.320;8.672;2023-02-13T09:14:01;103609.56;;;4.56;64.92
20656;BME280;10487;53.320;8.672;2023-02-13T09:17:03;103608.69;;;4.60;64.84
20656;BME280;10487;53.320;8.672;2023-02-13T09:20:05;103606.00;;;4.61;64.78
20656;BME280;10487;53.320;8.672;2023-02-13T09:23:07;103608.66;;;4.58;64.87
20656;BME280;10487;53.320;8.672;2023-02-13T09:26:11;103608.69;;;4.60;64.94
20656;BME280;10487;53.320;8.672;2023-02-13T09:29:13;103605.13;;;4.61;64.91
20656;BME280;10487;53.320;8.672;2023-02-13T09:32:14;103600.75;;;4.60;64.95
20656;BME280;10487;53.320;8.672;2023-02-13T09:35:18;103604.25;;;4.62;64.71
20656;BME280;10487;53.320;8.672;2023-02-13T09:38:20;103610.41;;;4.64;65.00
20656;BME280;10487;53.320;8.672;2023-02-13T09:41:22;103608.63;;;4.66;64.84
20656;BME280;10487;53.320;8.672;2023-02-13T09:44:40;103613.03;;;4.68;64.84
20656;BME280;10487;53.320;8.672;2023-02-13T09:47:44;103610.38;;;4.71;64.83
20656;BME280;10487;53.320;8.672;2023-02-13T09:50:45;103607.75;;;4.71;64.91
20656;BME280;10487;53.320;8.672;2023-02-13T09:53:55;103607.72;;;4.73;64.75
20656;BME280;10487;53.320;8.672;2023-02-13T09:57:16;103605.09;;;4.71;64.82
20656;BME280;10487;53.320;8.672;2023-02-13T10:00:28;103613.91;;;4.72;64.79
20656;BME280;10487;53.320;8.672;2023-02-13T10:06:42;103612.16;;;4.69;64.93
20656;BME280;10487;53.320;8.672;2023-02-13T10:10:02;103630.69;;;4.69;64.82
20656;BME280;10487;53.320;8.672;2023-02-13T10:13:43;103628.91;;;4.71;64.95
20656;BME280;10487;53.320;8.672;2023-02-13T10:16:54;103620.06;;;4.71;64.72
20656;BME280;10487;53.320;8.672;2023-02-13T10:20:02;103617.44;;;4.68;64.79
20656;BME280;10487;53.320;8.672;2023-02-13T10:23:16;103620.94;;;4.70;64.86
20656;BME280;10487;53.320;8.672;2023-02-13T10:26:25;103622.72;;;4.71;64.82
20656;BME280;10487;53.320;8.672;2023-02-13T10:29:47;103624.47;;;4.73;64.96
20656;BME280;10487;53.320;8.672;2023-02-13T10:33:19;103631.53;;;4.76;64.85
20656;BME280;10487;53.320;8.672;2023-02-13T10:36:28;103626.22;;;4.79;64.84
20656;BME280;10487;53.320;8.672;2023-02-13T10:39:31;103620.94;;;4.82;64.95
20656;BME280;10487;53.320;8.672;2023-02-13T10:45:59;103615.59;;;4.87;64.81
20656;BME280;10487;53.320;8.672;2023-02-13T11:02:22;103601.44;;;4.94;64.93
20656;BME280;10487;53.320;8.672;2023-02-13T11:05:30;103600.56;;;4.95;64.80
20656;BME280;10487;53.320;8.672;2023-02-13T11:08:34;103594.38;;;4.97;64.92
20656;BME280;10487;53.320;8.672;2023-02-13T11:11:41;103590.84;;;4.98;64.72
20656;BME280;10487;53.320;8.672;2023-02-13T11:14:57;103589.94;;;5.01;64.77
20656;BME280;10487;53.320;8.672;2023-02-13T11:18:10;103579.38;;;4.98;64.73
20656;BME280;10487;53.320;8.672;2023-02-13T11:21:21;103584.69;;;4.96;64.71
20656;BME280;10487;53.320;8.672;2023-02-13T11:24:25;103579.38;;;4.98;64.75
20656;BME280;10487;53.320;8.672;2023-02-13T11:27:34;103577.63;;;5.00;64.73
20656;BME280;10487;53.320;8.672;2023-02-13T11:30:38;103573.16;;;5.00;64.66
20656;BME280;10487;53.320;8.672;2023-02-13T11:33:40;103572.31;;;5.00;64.78
20656;BME280;10487;53.320;8.672;2023-02-13T11:36:42;103570.56;;;4.97;64.75
20656;BME280;10487;53.320;8.672;2023-02-13T11:39:45;103569.69;;;4.97;64.69
20656;BME280;10487;53.320;8.672;2023-02-13T11:42:51;103559.97;;;4.96;64.58
20656;BME280;10487;53.320;8.672;2023-02-13T11:46:25;103568.78;;;4.96;64.67
20656;BME280;10487;53.320;8.672;2023-02-13T11:49:30;103559.06;;;4.98;64.70
20656;BME280;10487;53.320;8.672;2023-02-13T11:52:34;103565.22;;;5.00;64.64
20656;BME280;10487;53.320;8.672;2023-02-13T11:55:38;103563.44;;;5.02;64.68
20656;BME280;10487;53.320;8.672;2023-02-13T11:58:41;103569.63;;;5.04;64.65
20656;BME280;10487;53.320;8.672;2023-02-13T12:01:43;103568.75;;;5.07;64.64
20656;BME280;10487;53.320;8.672;2023-02-13T12:04:52;103565.19;;;5.09;64.65
20656;BME280;10487;53.320;8.672;2023-02-13T12:07:57;103573.13;;;5.09;64.49
20656;BME280;10487;53.320;8.672;2023-02-13T12:11:02;103569.59;;;5.10;64.65
20656;BME280;10487;53.320;8.672;2023-02-13T12:14:04;103571.34;;;5.11;64.64
20656;BME280;10487;53.320;8.672;2023-02-13T12:17:11;103567.81;;;5.15;64.71
20656;BME280;10487;53.320;8.672;2023-02-13T12:37:48;103551.88;;;5.24;64.46
20656;BME280;10487;53.320;8.672;2023-02-13T12:41:19;103543.03;;;5.25;64.46
20656;BME280;10487;53.320;8.672;2023-02-13T12:44:40;103540.41;;;5.24;64.41
20656;BME280;10487;53.320;8.672;2023-02-13T12:51:29;103547.44;;;5.25;64.37
20656;BME280;10487;53.320;8.672;2023-02-13T13:07:31;103528.88;;;5.31;64.42
20656;BME280;10487;53.320;8.672;2023-02-13T13:21:47;103525.38;;;5.27;64.30
20656;BME280;10487;53.320;8.672;2023-02-13T13:28:13;103528.91;;;5.25;64.40
20656;BME280;10487;53.320;8.672;2023-02-13T13:31:15;103516.56;;;5.25;64.44
20656;BME280;10487;53.320;8.672;2023-02-13T13:34:22;103512.13;;;5.27;64.45
20656;BME280;10487;53.320;8.672;2023-02-13T13:37:42;103513.91;;;5.28;64.26
20656;BME280;10487;53.320;8.672;2023-02-13T13:40:51;103511.25;;;5.28;64.36
20656;BME280;10487;53.320;8.672;2023-02-13T13:50:39;103502.38;;;5.32;64.33
20656;BME280;10487;53.320;8.672;2023-02-13T13:57:07;103503.25;;;5.33;64.38
20656;BME280;10487;53.320;8.672;2023-02-13T14:03:33;103490.94;;;5.30;64.32
20656;BME280;10487;53.320;8.672;2023-02-13T14:09:47;103490.03;;;5.31;64.36
20656;BME280;10487;53.320;8.672;2023-02-13T14:13:00;103493.56;;;5.33;64.32
20656;BME280;10487;53.320;8.672;2023-02-13T14:16:05;103491.78;;;5.34;64.19
20656;BME280;10487;53.320;8.672;2023-02-13T14:19:33;103485.59;;;5.35;64.20
20656;BME280;10487;53.320;8.672;2023-02-13T14:22:38;103477.66;;;5.33;64.23
20656;BME280;10487;53.320;8.672;2023-02-13T14:25:41;103482.06;;;5.33;64.17
20656;BME280;10487;53.320;8.672;2023-02-13T14:35:36;103476.78;;;5.33;64.19
20656;BME280;10487;53.320;8.672;2023-02-13T14:38:38;103465.31;;;5.32;64.15
20656;BME280;10487;53.320;8.672;2023-02-13T14:44:59;103469.72;;;5.33;64.31
20656;BME280;10487;53.320;8.672;2023-02-13T14:48:11;103481.19;;;5.34;64.27
20656;BME280;10487;53.320;8.672;2023-02-13T14:51:21;103470.59;;;5.34;64.00
20656;BME280;10487;53.320;8.672;2023-02-13T14:54:35;103472.38;;;5.33;64.13
20656;BME280;10487;53.320;8.672;2023-02-13T14:57:43;103471.47;;;5.33;64.21
20656;BME280;10487;53.320;8.672;2023-02-13T15:00:52;103463.56;;;5.31;64.03
20656;BME280;10487;53.320;8.672;2023-02-13T15:04:09;103459.16;;;5.30;64.28
20656;BME280;10487;53.320;8.672;2023-02-13T15:07:22;103467.97;;;5.31;64.28
20656;BME280;10487;53.320;8.672;2023-02-13T15:10:40;103460.03;;;5.31;64.27
20656;BME280;10487;53.320;8.672;2023-02-13T15:13:47;103458.13;;;5.45;64.72
20656;BME280;10487;53.320;8.672;2023-02-13T15:16:56;103463.38;;;5.50;64.24
20656;BME280;10487;53.320;8.672;2023-02-13T15:23:25;103462.53;;;5.49;64.25
20656;BME280;10487;53.320;8.672;2023-02-13T15:26:27;103458.97;;;5.50;64.23
20656;BME280;10487;53.320;8.672;2023-02-13T15:29:29;103460.72;;;5.51;64.32
20656;BME280;10487;53.320;8.672;2023-02-13T15:32:58;103466.03;;;5.50;64.17
20656;BME280;10487;53.320;8.672;2023-02-13T15:36:04;103466.94;;;5.46;64.09
20656;BME280;10487;53.320;8.672;2023-02-13T15:39:06;103465.19;;;5.45;64.49
20656;BME280;10487;53.320;8.672;2023-02-13T15:42:10;103462.53;;;5.45;64.33
20656;BME280;10487;53.320;8.672;2023-02-13T15:45:15;103451.94;;;5.45;64.33
20656;BME280;10487;53.320;8.672;2023-02-13T15:48:17;103462.53;;;5.49;64.44
20656;BME280;10487;53.320;8.672;2023-02-13T15:51:27;103460.72;;;5.50;64.35
20656;BME280;10487;53.320;8.672;2023-02-13T15:54:31;103458.97;;;5.47;64.21
20656;BME280;10487;53.320;8.672;2023-02-13T15:57:33;103461.69;;;5.44;64.34
20656;BME280;10487;53.320;8.672;2023-02-13T16:00:39;103466.97;;;5.44;64.31
20656;BME280;10487;53.320;8.672;2023-02-13T16:03:43;103469.66;;;5.41;64.41
20656;BME280;10487;53.320;8.672;2023-02-13T16:06:47;103466.16;;;5.39;64.28
20656;BME280;10487;53.320;8.672;2023-02-13T16:09:51;103462.63;;;5.38;64.48
20656;BME280;10487;53.320;8.672;2023-02-13T16:12:54;103457.31;;;5.38;64.44
20656;BME280;10487;53.320;8.672;2023-02-13T16:16:07;103465.25;;;5.42;64.36
20656;BME280;10487;53.320;8.672;2023-02-13T16:25:32;103460.78;;;5.45;64.23
20656;BME280;10487;53.320;8.672;2023-02-13T16:28:35;103462.38;;;5.61;64.10
20656;BME280;10487;53.320;8.672;2023-02-13T16:31:38;103462.38;;;5.61;64.14
20656;BME280;10487;53.320;8.672;2023-02-13T16:34:41;103466.81;;;5.61;64.12
20656;BME280;10487;53.320;8.672;2023-02-13T16:37:51;103463.31;;;5.56;64.09
20656;BME280;10487;53.320;8.672;2023-02-13T16:40:55;103455.44;;;5.51;64.07
20656;BME280;10487;53.320;8.672;2023-02-13T16:44:02;103462.53;;;5.46;64.03
20656;BME280;10487;53.320;8.672;2023-02-13T16:47:04;103459.94;;;5.42;64.17
20656;BME280;10487;53.320;8.672;2023-02-13T16:50:13;103451.13;;;5.38;64.00
20656;BME280;10487;53.320;8.672;2023-02-13T16:53:16;103448.53;;;5.33;64.14
20656;BME280;10487;53.320;8.672;2023-02-13T16:56:17;103447.69;;;5.28;64.09
20656;BME280;10487;53.320;8.672;2023-02-13T17:02:30;103453.00;;;5.28;64.27
20656;BME280;10487;53.320;8.672;2023-02-13T17:05:32;103452.13;;;5.29;64.25
20656;BME280;10487;53.320;8.672;2023-02-13T17:08:33;103449.47;;;5.29;64.00
20656;BME280;10487;53.320;8.672;2023-02-13T17:11:35;103450.31;;;5.30;64.00
20656;BME280;10487;53.320;8.672;2023-02-13T17:14:36;103448.59;;;5.29;64.04
20656;BME280;10487;53.320;8.672;2023-02-13T17:17:38;103450.38;;;5.27;63.81
20656;BME280;10487;53.320;8.672;2023-02-13T17:20:43;103452.16;;;5.23;63.89
20656;BME280;10487;53.320;8.672;2023-02-13T17:23:45;103453.94;;;5.21;64.05
20656;BME280;10487;53.320;8.672;2023-02-13T17:26:48;103443.34;;;5.20;64.04
20656;BME280;10487;53.320;8.672;2023-02-13T17:29:49;103443.34;;;5.20;64.03
20656;BME280;10487;53.320;8.672;2023-02-13T17:32:58;103460.97;;;5.22;63.91
20656;BME280;10487;53.320;8.672;2023-02-13T17:36:00;103458.31;;;5.25;63.95
20656;BME280;10487;53.320;8.672;2023-02-13T17:39:02;103466.22;;;5.28;63.83
20656;BME280;10487;53.320;8.672;2023-02-13T17:42:03;103452.09;;;5.31;63.66
20656;BME280;10487;53.320;8.672;2023-02-13T17:45:05;103460.00;;;5.32;63.78
20656;BME280;10487;53.320;8.672;2023-02-13T17:48:07;103460.88;;;5.34;63.67
20656;BME280;10487;53.320;8.672;2023-02-13T17:51:13;103449.41;;;5.35;63.52
20656;BME280;10487;53.320;8.672;2023-02-13T17:54:14;103452.94;;;5.36;63.51
20656;BME280;10487;53.320;8.672;2023-02-13T17:57:17;103459.13;;;5.33;63.43
20656;BME280;10487;53.320;8.672;2023-02-13T18:00:20;103448.56;;;5.30;63.57
20656;BME280;10487;53.320;8.672;2023-02-13T18:03:21;103453.84;;;5.30;63.54
20656;BME280;10487;53.320;8.672;2023-02-13T18:06:23;103454.72;;;5.32;63.47
20656;BME280;10487;53.320;8.672;2023-02-13T18:09:24;103447.69;;;5.28;63.37
20656;BME280;10487;53.320;8.672;2023-02-13T18:12:26;103450.44;;;5.18;63.46
20656;BME280;10487;53.320;8.672;2023-02-13T18:15:39;103454.88;;;5.13;63.67
20656;BME280;10487;53.320;8.672;2023-02-13T18:18:41;103455.81;;;5.12;63.70
20656;BME280;10487;53.320;8.672;2023-02-13T18:21:42;103461.09;;;5.12;63.61
20656;BME280;10487;53.320;8.672;2023-02-13T18:24:44;103461.94;;;5.12;63.71
20656;BME280;10487;53.320;8.672;2023-02-13T18:27:45;103465.47;;;5.11;63.58
20656;BME280;10487;53.320;8.672;2023-02-13T18:30:47;103457.53;;;5.10;63.48
20656;BME280;10487;53.320;8.672;2023-02-13T18:33:49;103460.25;;;5.04;63.44
20656;BME280;10487;53.320;8.672;2023-02-13T18:36:50;103460.28;;;4.98;63.61
20656;BME280;10487;53.320;8.672;2023-02-13T18:39:52;103457.63;;;4.99;63.67
20656;BME280;10487;53.320;8.672;2023-02-13T18:42:54;103454.06;;;5.03;63.74